sensor_id;sensor_type;location;lat;lon;timestamp;pressure;altitude;pressure_sealevel;temperature;humidity
63111;BME280;49201;53.426;10.300;2022-07-01T00:01:53;101201.31;;;22.45;77.84
63111;BME280;49201;53.426;10.300;2022-07-01T00:04:19;101182.81;;;22.54;77.18
63111;BME280;49201;53.426;10.300;2022-07-01T00:06:45;101194.03;;;22.59;76.86
63111;BME280;49201;53.426;10.300;2022-07-01T00:09:10;101202.72;;;22.60;77.22
63111;BME280;49201;53.426;10.300;2022-07-01T00:11:36;101192.19;;;22.63;76.53
63111;BME280;49201;53.426;10.300;2022-07-01T00:14:01;101181.72;;;22.64;76.64
63111;BME280;49201;53.426;10.300;2022-07-01T00:16:27;101158.09;;;22.69;73.11
63111;BME280;49201;53.426;10.300;2022-07-01T00:18:52;101132.63;;;22.77;71.86
63111;BME280;49201;53.426;10.300;2022-07-01T00:21:17;101124.72;;;22.80;71.64
63111;BME280;49201;53.426;10.300;2022-07-01T00:23:43;101132.53;;;22.81;71.84
63111;BME280;49201;53.426;10.300;2022-07-01T00:26:08;101143.81;;;22.82;72.34
63111;BME280;49201;53.426;10.300;2022-07-01T00:28:35;101149.84;;;22.85;72.32
63111;BME280;49201;53.426;10.300;2022-07-01T00:31:00;101178.78;;;22.78;71.51
63111;BME280;49201;53.426;10.300;2022-07-01T00:33:26;101205.25;;;22.63;70.26
63111;BME280;49201;53.426;10.300;2022-07-01T00:35:51;101226.41;;;22.52;71.23
63111;BME280;49201;53.426;10.300;2022-07-01T00:38:18;101214.38;;;22.45;72.51
63111;BME280;49201;53.426;10.300;2022-07-01T00:40:43;101204.81;;;22.42;72.56
63111;BME280;49201;53.426;10.300;2022-07-01T00:43:09;101219.03;;;22.29;75.54
63111;BME280;49201;53.426;10.300;2022-07-01T00:45:34;101248.19;;;22.10;77.94
63111;BME280;49201;53.426;10.300;2022-07-01T00:48:00;101257.78;;;21.64;82.83
63111;BME280;49201;53.426;10.300;2022-07-01T00:50:25;101222.19;;;21.17;85.50
63111;BME280;49201;53.426;10.300;2022-07-01T00:52:51;101114.63;;;21.11;85.66
63111;BME280;49201;53.426;10.300;2022-07-01T00:55:16;101055.34;;;21.22;85.37
63111;BME280;49201;53.426;10.300;2022-07-01T00:57:43;101061.22;;;21.31;81.55
63111;BME280;49201;53.426;10.300;2022-07-01T01:00:15;101074.97;;;21.39;82.30
63111;BME280;49201;53.426;10.300;2022-07-01T01:02:42;101084.63;;;21.34;82.46
63111;BME280;49201;53.426;10.300;2022-07-01T01:05:08;101097.75;;;21.30;83.09
63111;BME280;49201;53.426;10.300;2022-07-01T01:07:34;101107.00;;;21.00;86.20
63111;BME280;49201;53.426;10.300;2022-07-01T01:10:01;101121.00;;;20.95;86.35
63111;BME280;49201;53.426;10.300;2022-07-01T01:12:28;101108.50;;;20.65;87.60
63111;BME280;49201;53.426;10.300;2022-07-01T01:14:54;101114.00;;;20.48;86.73
63111;BME280;49201;53.426;10.300;2022-07-01T01:17:20;101102.91;;;20.37;86.69
63111;BME280;49201;53.426;10.300;2022-07-01T01:19:49;101098.81;;;20.21;86.66
63111;BME280;49201;53.426;10.300;2022-07-01T01:22:16;101100.56;;;20.21;86.64
63111;BME280;49201;53.426;10.300;2022-07-01T01:24:43;101100.69;;;20.13;86.62
63111;BME280;49201;53.426;10.300;2022-07-01T01:27:09;101091.16;;;20.12;86.95
63111;BME280;49201;53.426;10.300;2022-07-01T01:29:35;101094.66;;;20.11;86.78
63111;BME280;49201;53.426;10.300;2022-07-01T01:32:01;101087.06;;;19.96;87.96
63111;BME280;49201;53.426;10.300;2022-07-01T01:34:26;101088.81;;;19.93;88.26
63111;BME280;49201;53.426;10.300;2022-07-01T01:36:52;101080.09;;;19.98;88.11
63111;BME280;49201;53.426;10.300;2022-07-01T01:39:19;101086.28;;;19.90;88.88
63111;BME280;49201;53.426;10.300;2022-07-01T01:41:44;101083.56;;;19.99;88.70
63111;BME280;49201;53.426;10.300;2022-07-01T01:44:10;101080.97;;;19.97;89.19
63111;BME280;49201;53.426;10.300;2022-07-01T01:46:36;101077.56;;;19.94;88.85
63111;BME280;49201;53.426;10.300;2022-07-01T01:49:02;101074.16;;;19.89;89.68
63111;BME280;49201;53.426;10.300;2022-07-01T01:51:28;101081.19;;;19.82;90.28
63111;BME280;49201;53.426;10.300;2022-07-01T01:53:54;101083.84;;;19.78;90.97
63111;BME280;49201;53.426;10.300;2022-07-01T01:56:21;101090.84;;;19.73;91.02
63111;BME280;49201;53.426;10.300;2022-07-01T01:58:47;101093.38;;;19.77;91.17
63111;BME280;49201;53.426;10.300;2022-07-01T02:01:13;101097.75;;;19.74;91.50
63111;BME280;49201;53.426;10.300;2022-07-01T02:03:41;101097.03;;;19.66;92.08
63111;BME280;49201;53.426;10.300;2022-07-01T02:06:07;101109.16;;;19.67;92.16
63111;BME280;49201;53.426;10.300;2022-07-01T02:08:38;101109.16;;;19.65;91.93
63111;BME280;49201;53.426;10.300;2022-07-01T02:11:04;101118.69;;;19.63;92.61
63111;BME280;49201;53.426;10.300;2022-07-01T02:13:30;101104.88;;;19.61;92.95
63111;BME280;49201;53.426;10.300;2022-07-01T02:15:56;101119.66;;;19.58;93.42
63111;BME280;49201;53.426;10.300;2022-07-01T02:18:22;101125.75;;;19.55;93.76
63111;BME280;49201;53.426;10.300;2022-07-01T02:20:48;101125.69;;;19.58;93.63
63111;BME280;49201;53.426;10.300;2022-07-01T02:23:13;101132.63;;;19.59;93.63
63111;BME280;49201;53.426;10.300;2022-07-01T02:25:40;101130.94;;;19.57;93.83
63111;BME280;49201;53.426;10.300;2022-07-01T02:28:06;101135.28;;;19.55;93.93
63111;BME280;49201;53.426;10.300;2022-07-01T02:30:33;101135.31;;;19.52;94.30
63111;BME280;49201;53.426;10.300;2022-07-01T02:33:05;101133.53;;;19.55;93.91
63111;BME280;49201;53.426;10.300;2022-07-01T02:35:32;101126.56;;;19.57;93.80
63111;BME280;49201;53.426;10.300;2022-07-01T02:37:58;101127.44;;;19.58;94.18
63111;BME280;49201;53.426;10.300;2022-07-01T02:40:24;101133.47;;;19.60;94.15
63111;BME280;49201;53.426;10.300;2022-07-01T02:42:49;101133.47;;;19.61;94.80
63111;BME280;49201;53.426;10.300;2022-07-01T02:45:15;101142.22;;;19.54;95.03
63111;BME280;49201;53.426;10.300;2022-07-01T02:47:41;101141.47;;;19.43;95.63
63111;BME280;49201;53.426;10.300;2022-07-01T02:50:09;101144.88;;;19.48;95.84
63111;BME280;49201;53.426;10.300;2022-07-01T02:52:36;101134.47;;;19.51;95.65
63111;BME280;49201;53.426;10.300;2022-07-01T02:55:07;101137.84;;;19.56;95.54
63111;BME280;49201;53.426;10.300;2022-07-01T02:57:33;101132.66;;;19.58;95.43
63111;BME280;49201;53.426;10.300;2022-07-01T02:59:59;101137.03;;;19.53;96.06
63111;BME280;49201;53.426;10.300;2022-07-01T03:02:24;101149.16;;;19.54;96.12
63111;BME280;49201;53.426;10.300;2022-07-01T03:04:52;101169.91;;;19.57;96.18
63111;BME280;49201;53.426;10.300;2022-07-01T03:07:19;101169.94;;;19.55;96.71
63111;BME280;49201;53.426;10.300;2022-07-01T03:09:45;101199.41;;;19.51;97.02
63111;BME280;49201;53.426;10.300;2022-07-01T03:12:11;101213.31;;;19.46;97.67
63111;BME280;49201;53.426;10.300;2022-07-01T03:17:23;101225.50;;;19.41;98.85
63111;BME280;49201;53.426;10.300;2022-07-01T03:19:49;101222.09;;;19.37;99.59
63111;BME280;49201;53.426;10.300;2022-07-01T03:22:14;101219.50;;;19.34;100.00
63111;BME280;49201;53.426;10.300;2022-07-01T03:24:40;101224.69;;;19.37;100.00
63111;BME280;49201;53.426;10.300;2022-07-01T03:27:06;101227.28;;;19.37;100.00
63111;BME280;49201;53.426;10.300;2022-07-01T03:29:31;101235.97;;;19.35;100.00
63111;BME280;49201;53.426;10.300;2022-07-01T03:31:56;101238.56;;;19.35;100.00
63111;BME280;49201;53.426;10.300;2022-07-01T03:34:22;101234.25;;;19.34;100.00
63111;BME280;49201;53.426;10.300;2022-07-01T03:36:48;101234.22;;;19.35;100.00
63111;BME280;49201;53.426;10.300;2022-07-01T03:39:13;101225.50;;;19.41;99.67
63111;BME280;49201;53.426;10.300;2022-07-01T03:41:39;101232.38;;;19.48;99.76
63111;BME280;49201;53.426;10.300;2022-07-01T03:44:04;101225.38;;;19.54;99.46
63111;BME280;49201;53.426;10.300;2022-07-01T03:46:31;101224.47;;;19.57;99.35
63111;BME280;49201;53.426;10.300;2022-07-01T03:48:58;101228.81;;;19.56;99.24
63111;BME280;49201;53.426;10.300;2022-07-01T03:51:24;101223.53;;;19.62;99.25
63111;BME280;49201;53.426;10.300;2022-07-01T03:53:49;101207.88;;;19.68;98.59
63111;BME280;49201;53.426;10.300;2022-07-01T03:56:34;101206.94;;;19.72;98.31
63111;BME280;49201;53.426;10.300;2022-07-01T03:58:59;101212.94;;;19.79;97.88
63111;BME280;49201;53.426;10.300;2022-07-01T04:01:25;101207.72;;;19.79;97.87
63111;BME280;49201;53.426;10.300;2022-07-01T04:03:50;101197.28;;;19.83;98.22
63111;BME280;49201;53.426;10.300;2022-07-01T04:06:16;101189.41;;;19.89;97.96
63111;BME280;49201;53.426;10.300;2022-07-01T04:08:41;101178.13;;;19.90;97.25
63111;BME280;49201;53.426;10.300;2022-07-01T04:11:07;101185.06;;;19.91;97.44
63111;BME280;49201;53.426;10.300;2022-07-01T04:13:37;101189.38;;;19.92;96.84
63111;BME280;49201;53.426;10.300;2022-07-01T04:16:03;101196.31;;;19.90;96.85
63111;BME280;49201;53.426;10.300;2022-07-01T04:18:29;101206.78;;;19.87;96.65
63111;BME280;49201;53.426;10.300;2022-07-01T04:20:56;101215.41;;;19.89;96.84
63111;BME280;49201;53.426;10.300;2022-07-01T04:23:40;101224.09;;;19.88;96.84
63111;BME280;49201;53.426;10.300;2022-07-01T04:26:05;101224.09;;;19.88;96.93
63111;BME280;49201;53.426;10.300;2022-07-01T04:28:30;101230.97;;;19.92;96.78
63111;BME280;49201;53.426;10.300;2022-07-01T04:30:56;101224.91;;;19.92;97.07
63111;BME280;49201;53.426;10.300;2022-07-01T04:33:21;101222.25;;;19.96;96.76
63111;BME280;49201;53.426;10.300;2022-07-01T04:35:47;101225.69;;;19.98;96.62
63111;BME280;49201;53.426;10.300;2022-07-01T04:38:12;101233.41;;;20.04;95.97
63111;BME280;49201;53.426;10.300;2022-07-01T04:40:38;101239.50;;;20.03;95.70
63111;BME280;49201;53.426;10.300;2022-07-01T04:43:03;101241.28;;;20.01;95.98
63111;BME280;49201;53.426;10.300;2022-07-01T04:45:28;101254.38;;;19.91;95.75
63111;BME280;49201;53.426;10.300;2022-07-01T04:47:54;101260.53;;;19.84;95.99
63111;BME280;49201;53.426;10.300;2022-07-01T04:50:19;101270.09;;;19.82;95.86
63111;BME280;49201;53.426;10.300;2022-07-01T04:52:45;101271.09;;;19.72;95.73
63111;BME280;49201;53.426;10.300;2022-07-01T04:55:10;101278.06;;;19.67;95.26
63111;BME280;49201;53.426;10.300;2022-07-01T04:57:35;101284.19;;;19.61;95.42
63111;BME280;49201;53.426;10.300;2022-07-01T05:00:01;101281.66;;;19.57;94.96
63111;BME280;49201;53.426;10.300;2022-07-01T05:02:27;101291.31;;;19.43;95.68
63111;BME280;49201;53.426;10.300;2022-07-01T05:04:52;101290.38;;;19.47;95.59
63111;BME280;49201;53.426;10.300;2022-07-01T05:07:17;101294.69;;;19.49;96.09
63111;BME280;49201;53.426;10.300;2022-07-01T05:09:55;101309.44;;;19.47;96.03
63111;BME280;49201;53.426;10.300;2022-07-01T05:12:21;101313.00;;;19.39;96.67
63111;BME280;49201;53.426;10.300;2022-07-01T05:14:48;101325.13;;;19.35;96.86
63111;BME280;49201;53.426;10.300;2022-07-01T05:17:13;101333.00;;;19.26;97.07
63111;BME280;49201;53.426;10.300;2022-07-01T05:19:39;101344.25;;;19.28;97.42
63111;BME280;49201;53.426;10.300;2022-07-01T05:22:23;101353.84;;;19.14;97.04
63111;BME280;49201;53.426;10.300;2022-07-01T05:24:49;101354.75;;;19.09;96.64
63111;BME280;49201;53.426;10.300;2022-07-01T05:27:14;101355.69;;;18.97;96.34
63111;BME280;49201;53.426;10.300;2022-07-01T05:29:39;101357.50;;;18.83;96.07
63111;BME280;49201;53.426;10.300;2022-07-01T05:32:05;101349.78;;;18.74;95.86
63111;BME280;49201;53.426;10.300;2022-07-01T05:34:31;101359.31;;;18.69;96.08
63111;BME280;49201;53.426;10.300;2022-07-01T05:36:57;101369.75;;;18.60;96.16
63111;BME280;49201;53.426;10.300;2022-07-01T05:39:22;101384.56;;;18.33;96.26
63111;BME280;49201;53.426;10.300;2022-07-01T05:41:48;101396.69;;;18.19;96.92
63111;BME280;49201;53.426;10.300;2022-07-01T05:44:13;101399.25;;;18.25;96.88
63111;BME280;49201;53.426;10.300;2022-07-01T05:46:39;101410.50;;;18.21;97.13
63111;BME280;49201;53.426;10.300;2022-07-01T05:49:04;101423.47;;;18.25;96.52
63111;BME280;49201;53.426;10.300;2022-07-01T05:51:30;101426.94;;;18.21;96.32
63111;BME280;49201;53.426;10.300;2022-07-01T05:53:56;101433.84;;;18.24;96.04
63111;BME280;49201;53.426;10.300;2022-07-01T05:56:22;101445.94;;;18.16;95.30
63111;BME280;49201;53.426;10.300;2022-07-01T05:58:48;101452.00;;;18.13;95.86
63111;BME280;49201;53.426;10.300;2022-07-01T06:01:14;101462.38;;;18.01;96.05
63111;BME280;49201;53.426;10.300;2022-07-01T06:03:39;101469.28;;;17.87;96.42
63111;BME280;49201;53.426;10.300;2022-07-01T06:06:05;101477.06;;;17.81;96.57
63111;BME280;49201;53.426;10.300;2022-07-01T06:08:31;101474.50;;;17.75;96.63
63111;BME280;49201;53.426;10.300;2022-07-01T06:10:56;101475.34;;;17.86;96.73
63111;BME280;49201;53.426;10.300;2022-07-01T06:13:21;101458.06;;;17.96;97.10
63111;BME280;49201;53.426;10.300;2022-07-01T06:15:47;101456.34;;;17.99;97.16
63111;BME280;49201;53.426;10.300;2022-07-01T06:18:12;101470.16;;;17.86;96.75
63111;BME280;49201;53.426;10.300;2022-07-01T06:20:38;101476.22;;;17.67;96.67
63111;BME280;49201;53.426;10.300;2022-07-01T06:23:03;101461.53;;;17.59;98.22
63111;BME280;49201;53.426;10.300;2022-07-01T06:25:29;101462.38;;;17.52;98.50
63111;BME280;49201;53.426;10.300;2022-07-01T06:27:54;101445.09;;;17.40;97.58
63111;BME280;49201;53.426;10.300;2022-07-01T06:30:20;101426.09;;;17.49;97.66
63111;BME280;49201;53.426;10.300;2022-07-01T06:32:45;101400.19;;;17.37;96.98
63111;BME280;49201;53.426;10.300;2022-07-01T06:35:11;101376.88;;;17.38;96.82
63111;BME280;49201;53.426;10.300;2022-07-01T06:37:36;101328.53;;;17.31;96.79
63111;BME280;49201;53.426;10.300;2022-07-01T06:40:05;101332.88;;;17.41;96.65
63111;BME280;49201;53.426;10.300;2022-07-01T06:42:33;101342.38;;;17.45;96.67
63111;BME280;49201;53.426;10.300;2022-07-01T06:44:58;101415.75;;;17.50;96.14
63111;BME280;49201;53.426;10.300;2022-07-01T06:47:24;101449.44;;;17.40;96.02
63111;BME280;49201;53.426;10.300;2022-07-01T06:49:49;101485.63;;;17.34;96.16
63111;BME280;49201;53.426;10.300;2022-07-01T06:52:15;101485.63;;;17.38;96.38
63111;BME280;49201;53.426;10.300;2022-07-01T06:54:40;101471.00;;;17.48;96.45
63111;BME280;49201;53.426;10.300;2022-07-01T06:57:06;101441.66;;;17.67;95.85
63111;BME280;49201;53.426;10.300;2022-07-01T06:59:32;101452.91;;;17.78;95.32
63111;BME280;49201;53.426;10.300;2022-07-01T07:01:58;101446.84;;;17.94;94.66
63111;BME280;49201;53.426;10.300;2022-07-01T07:04:23;101445.09;;;18.00;94.49
63111;BME280;49201;53.426;10.300;2022-07-01T07:06:48;101453.72;;;17.95;94.07
63111;BME280;49201;53.426;10.300;2022-07-01T07:09:14;101456.34;;;17.90;94.58
63111;BME280;49201;53.426;10.300;2022-07-01T07:11:40;101452.03;;;17.82;94.89
63111;BME280;49201;53.426;10.300;2022-07-01T07:14:05;101444.25;;;17.89;95.16
63111;BME280;49201;53.426;10.300;2022-07-01T07:16:31;101452.88;;;17.94;95.24
63111;BME280;49201;53.426;10.300;2022-07-01T07:18:57;101459.78;;;17.92;94.51
63111;BME280;49201;53.426;10.300;2022-07-01T07:21:22;101463.25;;;17.90;94.35
63111;BME280;49201;53.426;10.300;2022-07-01T07:23:48;101466.72;;;17.92;94.81
63111;BME280;49201;53.426;10.300;2022-07-01T07:26:14;101471.00;;;17.90;94.79
63111;BME280;49201;53.426;10.300;2022-07-01T07:28:40;101471.88;;;17.87;94.10
63111;BME280;49201;53.426;10.300;2022-07-01T07:31:05;101483.13;;;17.89;94.77
63111;BME280;49201;53.426;10.300;2022-07-01T07:33:31;101489.16;;;17.75;95.25
63111;BME280;49201;53.426;10.300;2022-07-01T07:35:56;101481.38;;;17.66;94.91
63111;BME280;49201;53.426;10.300;2022-07-01T07:38:22;101489.13;;;17.55;94.40
63111;BME280;49201;53.426;10.300;2022-07-01T07:40:47;101484.81;;;17.53;94.74
63111;BME280;49201;53.426;10.300;2022-07-01T07:43:13;101486.56;;;17.57;94.65
63111;BME280;49201;53.426;10.300;2022-07-01T07:45:38;101482.22;;;17.62;93.96
63111;BME280;49201;53.426;10.300;2022-07-01T07:48:04;101477.06;;;17.62;93.56
63111;BME280;49201;53.426;10.300;2022-07-01T07:50:31;101483.97;;;17.61;93.11
63111;BME280;49201;53.426;10.300;2022-07-01T07:52:56;101489.16;;;17.61;93.37
63111;BME280;49201;53.426;10.300;2022-07-01T07:55:22;101483.09;;;17.58;92.88
63111;BME280;49201;53.426;10.300;2022-07-01T07:57:47;101490.91;;;17.65;92.91
63111;BME280;49201;53.426;10.300;2022-07-01T08:00:13;101486.56;;;17.64;92.74
63111;BME280;49201;53.426;10.300;2022-07-01T08:02:40;101483.13;;;17.64;92.58
63111;BME280;49201;53.426;10.300;2022-07-01T08:05:07;101489.16;;;17.82;92.20
63111;BME280;49201;53.426;10.300;2022-07-01T08:07:37;101488.28;;;17.76;92.03
63111;BME280;49201;53.426;10.300;2022-07-01T08:10:05;101500.41;;;17.77;92.01
63111;BME280;49201;53.426;10.300;2022-07-01T08:12:30;101512.47;;;17.69;91.68
63111;BME280;49201;53.426;10.300;2022-07-01T08:14:57;101515.06;;;17.61;92.01
63111;BME280;49201;53.426;10.300;2022-07-01T08:17:22;101528.84;;;17.47;91.96
63111;BME280;49201;53.426;10.300;2022-07-01T08:19:47;101525.41;;;17.49;92.04
63111;BME280;49201;53.426;10.300;2022-07-01T08:22:14;101518.47;;;17.45;91.76
63111;BME280;49201;53.426;10.300;2022-07-01T08:24:39;101518.47;;;17.53;91.47
63111;BME280;49201;53.426;10.300;2022-07-01T08:27:05;101516.75;;;17.52;90.79
63111;BME280;49201;53.426;10.300;2022-07-01T08:29:30;101522.81;;;17.55;90.63
63111;BME280;49201;53.426;10.300;2022-07-01T08:31:55;101517.66;;;17.66;90.67
63111;BME280;49201;53.426;10.300;2022-07-01T08:34:21;101519.38;;;17.67;91.04
63111;BME280;49201;53.426;10.300;2022-07-01T08:36:46;101516.78;;;17.67;91.18
63111;BME280;49201;53.426;10.300;2022-07-01T08:39:12;101516.78;;;17.59;90.81
63111;BME280;49201;53.426;10.300;2022-07-01T08:41:40;101528.00;;;17.63;90.60
63111;BME280;49201;53.426;10.300;2022-07-01T08:44:06;101530.63;;;17.69;90.05
63111;BME280;49201;53.426;10.300;2022-07-01T08:46:31;101532.38;;;17.80;89.82
63111;BME280;49201;53.426;10.300;2022-07-01T08:48:56;101535.81;;;17.93;89.82
63111;BME280;49201;53.426;10.300;2022-07-01T08:51:22;101539.28;;;17.98;89.64
63111;BME280;49201;53.426;10.300;2022-07-01T08:53:47;101544.47;;;17.98;89.53
63111;BME280;49201;53.426;10.300;2022-07-01T08:56:13;101547.06;;;18.05;89.43
63111;BME280;49201;53.426;10.300;2022-07-01T08:58:57;101541.88;;;18.16;89.54
63111;BME280;49201;53.426;10.300;2022-07-01T09:01:25;101552.25;;;18.16;88.79
63111;BME280;49201;53.426;10.300;2022-07-01T09:03:55;101553.09;;;18.28;88.90
63111;BME280;49201;53.426;10.300;2022-07-01T09:06:23;101550.50;;;18.31;88.22
63111;BME280;49201;53.426;10.300;2022-07-01T09:08:49;101554.00;;;18.35;88.13
63111;BME280;49201;53.426;10.300;2022-07-01T09:11:25;101557.44;;;18.23;86.37
63111;BME280;49201;53.426;10.300;2022-07-01T09:14:11;101553.09;;;18.19;86.99
63111;BME280;49201;53.426;10.300;2022-07-01T09:19:13;101565.22;;;18.17;86.78
63111;BME280;49201;53.426;10.300;2022-07-01T09:21:40;101575.56;;;18.14;87.54
63111;BME280;49201;53.426;10.300;2022-07-01T09:26:54;101598.00;;;17.70;87.54
63111;BME280;49201;53.426;10.300;2022-07-01T09:29:25;101593.66;;;17.74;88.50
63111;BME280;49201;53.426;10.300;2022-07-01T09:31:51;101597.09;;;17.74;88.45
63111;BME280;49201;53.426;10.300;2022-07-01T09:34:16;101592.81;;;17.76;88.45
63111;BME280;49201;53.426;10.300;2022-07-01T09:36:51;101592.78;;;17.73;87.99
63111;BME280;49201;53.426;10.300;2022-07-01T09:39:17;101592.75;;;17.64;87.90
63111;BME280;49201;53.426;10.300;2022-07-01T09:41:42;101595.41;;;17.78;87.82
63111;BME280;49201;53.426;10.300;2022-07-01T09:44:08;101589.38;;;17.86;88.11
63111;BME280;49201;53.426;10.300;2022-07-01T09:46:34;101588.53;;;17.92;88.08
63111;BME280;49201;53.426;10.300;2022-07-01T09:49:00;101589.38;;;17.86;87.67
63111;BME280;49201;53.426;10.300;2022-07-01T09:51:26;101604.06;;;17.90;88.62
63111;BME280;49201;53.426;10.300;2022-07-01T09:53:53;101600.63;;;17.87;88.45
63111;BME280;49201;53.426;10.300;2022-07-01T09:56:19;101604.88;;;17.76;88.59
63111;BME280;49201;53.426;10.300;2022-07-01T09:58:44;101608.34;;;17.75;88.66
63111;BME280;49201;53.426;10.300;2022-07-01T10:01:10;101611.81;;;17.75;88.33
63111;BME280;49201;53.426;10.300;2022-07-01T10:03:37;101612.69;;;17.79;89.36
63111;BME280;49201;53.426;10.300;2022-07-01T10:08:48;101617.84;;;17.64;89.39
63111;BME280;49201;53.426;10.300;2022-07-01T10:14:11;101623.00;;;17.74;89.67
63111;BME280;49201;53.426;10.300;2022-07-01T10:16:38;101628.19;;;17.68;90.23
63111;BME280;49201;53.426;10.300;2022-07-01T10:19:28;101620.41;;;17.67;90.17
63111;BME280;49201;53.426;10.300;2022-07-01T10:21:56;101630.81;;;17.77;90.46
63111;BME280;49201;53.426;10.300;2022-07-01T10:24:25;101636.06;;;17.91;90.74
63111;BME280;49201;53.426;10.300;2022-07-01T10:26:51;101641.16;;;17.64;89.83
63111;BME280;49201;53.426;10.300;2022-07-01T10:29:34;101646.34;;;17.76;89.90
63111;BME280;49201;53.426;10.300;2022-07-01T10:32:09;101654.94;;;17.64;89.46
63111;BME280;49201;53.426;10.300;2022-07-01T10:34:41;101655.00;;;17.70;89.20
63111;BME280;49201;53.426;10.300;2022-07-01T10:37:09;101654.94;;;17.63;89.02
63111;BME280;49201;53.426;10.300;2022-07-01T10:42:19;101659.28;;;17.65;89.84
63111;BME280;49201;53.426;10.300;2022-07-01T10:45:00;101672.22;;;17.61;89.69
63111;BME280;49201;53.426;10.300;2022-07-01T10:47:26;101673.06;;;17.58;90.14
63111;BME280;49201;53.426;10.300;2022-07-01T10:49:57;101678.25;;;17.60;90.21
63111;BME280;49201;53.426;10.300;2022-07-01T10:52:23;101692.97;;;17.64;89.68
63111;BME280;49201;53.426;10.300;2022-07-01T10:54:54;101689.50;;;17.69;89.94
63111;BME280;49201;53.426;10.300;2022-07-01T10:57:38;101701.59;;;17.67;90.01
63111;BME280;49201;53.426;10.300;2022-07-01T11:02:34;101713.50;;;17.38;90.18
63111;BME280;49201;53.426;10.300;2022-07-01T11:05:03;101711.84;;;17.43;91.28
63111;BME280;49201;53.426;10.300;2022-07-01T11:07:31;101719.69;;;17.58;90.81
63111;BME280;49201;53.426;10.300;2022-07-01T11:09:58;101727.44;;;17.54;91.04
63111;BME280;49201;53.426;10.300;2022-07-01T11:12:24;101725.59;;;17.38;91.08
63111;BME280;49201;53.426;10.300;2022-07-01T11:14:51;101732.56;;;17.43;91.53
63111;BME280;49201;53.426;10.300;2022-07-01T11:17:18;101729.94;;;17.40;91.10
63111;BME280;49201;53.426;10.300;2022-07-01T11:19:51;101731.66;;;17.41;90.50
63111;BME280;49201;53.426;10.300;2022-07-01T11:22:38;101731.84;;;17.70;90.03
63111;BME280;49201;53.426;10.300;2022-07-01T11:25:13;101729.28;;;17.79;88.92
63111;BME280;49201;53.426;10.300;2022-07-01T11:27:39;101735.16;;;17.42;88.57
63111;BME280;49201;53.426;10.300;2022-07-01T11:32:38;101722.34;;;17.70;89.35
63111;BME280;49201;53.426;10.300;2022-07-01T11:35:06;101715.47;;;17.81;89.45
63111;BME280;49201;53.426;10.300;2022-07-01T11:37:52;101711.22;;;17.97;89.20
63111;BME280;49201;53.426;10.300;2022-07-01T11:40:35;101717.25;;;17.99;88.97
63111;BME280;49201;53.426;10.300;2022-07-01T11:43:01;101715.50;;;17.95;89.35
63111;BME280;49201;53.426;10.300;2022-07-01T11:45:27;101723.28;;;17.84;88.93
63111;BME280;49201;53.426;10.300;2022-07-01T11:47:53;101714.50;;;17.58;89.14
63111;BME280;49201;53.426;10.300;2022-07-01T11:50:19;101717.19;;;17.78;90.55
63111;BME280;49201;53.426;10.300;2022-07-01T11:52:45;101714.63;;;17.82;90.02
63111;BME280;49201;53.426;10.300;2022-07-01T11:55:11;101717.22;;;17.87;89.24
63111;BME280;49201;53.426;10.300;2022-07-01T11:57:37;101715.50;;;17.89;89.41
63111;BME280;49201;53.426;10.300;2022-07-01T12:00:11;101710.31;;;17.89;89.00
63111;BME280;49201;53.426;10.300;2022-07-01T12:02:38;101713.78;;;17.88;89.37
63111;BME280;49201;53.426;10.300;2022-07-01T12:05:04;101713.78;;;17.92;89.63
63111;BME280;49201;53.426;10.300;2022-07-01T12:07:30;101711.19;;;17.89;88.31
63111;BME280;49201;53.426;10.300;2022-07-01T12:09:57;101722.44;;;17.93;87.85
63111;BME280;49201;53.426;10.300;2022-07-01T12:12:23;101716.41;;;17.97;87.85
63111;BME280;49201;53.426;10.300;2022-07-01T12:17:19;101712.09;;;18.06;87.26
63111;BME280;49201;53.426;10.300;2022-07-01T12:19:46;101721.63;;;18.10;87.56
63111;BME280;49201;53.426;10.300;2022-07-01T12:22:15;101718.16;;;18.08;88.08
63111;BME280;49201;53.426;10.300;2022-07-01T12:24:49;101718.19;;;18.17;87.08
63111;BME280;49201;53.426;10.300;2022-07-01T12:27:15;101715.59;;;18.20;86.23
63111;BME280;49201;53.426;10.300;2022-07-01T12:32:14;101710.41;;;18.29;85.58
63111;BME280;49201;53.426;10.300;2022-07-01T12:34:47;101710.44;;;18.32;84.27
63111;BME280;49201;53.426;10.300;2022-07-01T12:37:15;101706.19;;;18.42;84.67
63111;BME280;49201;53.426;10.300;2022-07-01T12:39:54;101702.72;;;18.35;84.37
63111;BME280;49201;53.426;10.300;2022-07-01T12:44:51;101703.59;;;18.58;82.66
63111;BME280;49201;53.426;10.300;2022-07-01T12:47:19;101705.31;;;18.56;82.78
63111;BME280;49201;53.426;10.300;2022-07-01T12:49:45;101706.19;;;18.75;83.30
63111;BME280;49201;53.426;10.300;2022-07-01T12:52:24;101710.53;;;18.86;82.06
63111;BME280;49201;53.426;10.300;2022-07-01T12:54:49;101712.22;;;19.01;79.93
63111;BME280;49201;53.426;10.300;2022-07-01T12:57:15;101726.06;;;19.12;79.81
63111;BME280;49201;53.426;10.300;2022-07-01T12:59:40;101713.06;;;19.34;80.07
63111;BME280;49201;53.426;10.300;2022-07-01T13:02:06;101708.63;;;19.66;78.63
63111;BME280;49201;53.426;10.300;2022-07-01T13:04:31;101708.53;;;19.90;77.02
63111;BME280;49201;53.426;10.300;2022-07-01T13:06:57;101707.59;;;20.17;75.77
63111;BME280;49201;53.426;10.300;2022-07-01T13:09:23;101708.31;;;20.38;74.84